»·PEaware :: N786SG KSMX-KSBA

N786SG :: KSMX-KSBA

FLIGHT INFORMATION

Flight Status: Arrived
Operator: Privately registered:
United States
More flights under this callsign
Pilot: Sulaiman S. (16428)
Aircraft: CESSNA 172 SKYHAWK
(C172)
More flights by this aircraft type
Origin: KSMX Santa Maria Pub/Capt Hancock
United States
Destination: KSBA Santa Barbara Mun
United States
More flights between these airports :: More routes between these airports
Route: +RZS
File this flight plan on PilotEdge
Remarks:
Altitude:
(Current/Filed)
3,500ft
Speed:
(Current/Filed)
140kts
Departed: 05-Oct-17 01:43 PM
Arrived: 05-Oct-17 02:25 PM
Distance/Time
Traveled:
41nm/0:42
Distance/Time
To Go:
Arrived

Flight Plot

Page will automatically refresh every two minutes.

Flight plan parsing failed; only flown route is shown


Map Options




Map Legend


Flown Route
Filed Route
Departure Airport
Arrival Airport
Navaid (VOR, NDB)
Fix

Horizontal Profiles

Position Reports

Time Latitude Longitude Heading Altitude Ground
Speed
05-Oct-17 13:25 34.900453 -120.450167 168 264ft 0kts
05-Oct-17 13:26 34.900453 -120.450167 168 264ft 0kts
05-Oct-17 13:27 34.900453 -120.450167 168 264ft 0kts
05-Oct-17 13:28 34.900453 -120.450167 168 264ft 0kts
05-Oct-17 13:29 34.900453 -120.450167 168 264ft 0kts
05-Oct-17 13:30 34.900453 -120.450167 168 264ft 0kts
05-Oct-17 13:31 34.900453 -120.450167 168 264ft 0kts
05-Oct-17 13:32 34.900453 -120.450167 168 264ft 0kts
05-Oct-17 13:33 34.900453 -120.450167 168 264ft 0kts
05-Oct-17 13:34 34.900453 -120.450167 168 264ft 0kts
05-Oct-17 13:35 34.900453 -120.450167 168 264ft 0kts
05-Oct-17 13:36 34.900452 -120.450167 168 264ft 0kts
05-Oct-17 13:37 34.900452 -120.450167 168 264ft 0kts
05-Oct-17 13:38 34.900452 -120.450167 168 264ft 0kts
05-Oct-17 13:39 34.900452 -120.450167 168 264ft 0kts
05-Oct-17 13:40 34.900452 -120.450167 168 264ft 0kts
05-Oct-17 13:41 34.900395 -120.450151 167 264ft 2kts
05-Oct-17 13:42 34.899287 -120.451060 137 264ft 8kts
05-Oct-17 13:43 34.897193 -120.448586 136 264ft 11kts
05-Oct-17 13:44 34.894603 -120.445522 157 264ft 13kts
05-Oct-17 13:45 34.893598 -120.445385 180 264ft 0kts
05-Oct-17 13:46 34.893586 -120.445385 178 264ft 1kts
05-Oct-17 13:47 34.897800 -120.451846 307 456ft 60kts
05-Oct-17 13:48 34.908652 -120.468684 286 1302ft 68kts
05-Oct-17 13:49 34.894481 -120.447297 111 1963ft 117kts
05-Oct-17 13:50 34.882434 -120.411412 111 2824ft 110kts
05-Oct-17 13:51 34.871463 -120.378908 111 3794ft 100kts
05-Oct-17 13:52 34.861352 -120.349170 111 4763ft 91kts
05-Oct-17 13:53 34.849130 -120.326915 127 4918ft 131kts
05-Oct-17 13:54 34.827423 -120.289530 127 4895ft 138kts
05-Oct-17 13:55 34.805787 -120.252178 127 4896ft 136kts
05-Oct-17 13:56 34.784725 -120.214795 127 4871ft 132kts
05-Oct-17 13:57 34.764998 -120.178085 127 4871ft 129kts
05-Oct-17 13:58 34.745487 -120.141909 127 4871ft 128kts
05-Oct-17 13:59 34.724233 -120.107853 132 4870ft 127kts
05-Oct-17 14:00 34.702715 -120.074110 132 4871ft 128kts
05-Oct-17 14:01 34.679860 -120.045223 142 5137ft 105kts
05-Oct-17 14:02 34.658364 -120.020281 141 5276ft 115kts
05-Oct-17 14:03 34.634436 -119.992968 142 5272ft 120kts
05-Oct-17 14:04 34.609806 -119.965110 141 5272ft 122kts
05-Oct-17 14:05 34.587313 -119.933113 112 4989ft 136kts
05-Oct-17 14:06 34.573403 -119.894106 120 4868ft 118kts
05-Oct-17 14:07 34.557676 -119.860311 124 4869ft 112kts
05-Oct-17 14:08 34.541454 -119.829117 126 4870ft 108kts
05-Oct-17 14:09 34.525013 -119.798994 126 4871ft 107kts
05-Oct-17 14:10 34.508372 -119.769173 138 4866ft 106kts
05-Oct-17 14:11 34.483034 -119.753624 160 4872ft 102kts
05-Oct-17 14:12 34.456102 -119.743150 165 4871ft 102kts
05-Oct-17 14:13 34.429210 -119.731820 164 4871ft 102kts
05-Oct-17 14:14 34.402561 -119.720043 163 4871ft 102kts
05-Oct-17 14:15 34.382013 -119.698841 110 4756ft 111kts
05-Oct-17 14:16 34.370703 -119.661079 127 4095ft 124kts
05-Oct-17 14:17 34.352399 -119.624488 121 3409ft 129kts
05-Oct-17 14:18 34.323667 -119.602773 156 2870ft 114kts
05-Oct-17 14:19 34.307939 -119.611878 299 2865ft 83kts
05-Oct-17 14:20 34.331010 -119.623626 335 2878ft 99kts
05-Oct-17 14:21 34.357634 -119.636077 333 2872ft 104kts
05-Oct-17 14:22 34.372039 -119.665657 292 2454ft 113kts
05-Oct-17 14:23 34.383057 -119.694857 290 1965ft 78kts
05-Oct-17 14:24 34.391861 -119.718584 290 1972ft 79kts
05-Oct-17 14:25 34.400447 -119.742980 288 1946ft 81kts
05-Oct-17 14:26 34.411525 -119.768818 293 1678ft 92kts
05-Oct-17 14:27 34.422975 -119.796319 288 1052ft 92kts
05-Oct-17 14:28 34.428203 -119.821595 268 296ft 76kts
05-Oct-17 14:29 34.427960 -119.838672 326 16ft 18kts
05-Oct-17 14:30 34.429078 -119.839063 344 16ft 9kts
05-Oct-17 14:31 34.431332 -119.837636 69 16ft 8kts
05-Oct-17 14:32 34.431836 -119.837495 158 16ft 0kts
05-Oct-17 14:33 34.431836 -119.837495 158 16ft 0kts
05-Oct-17 14:34 34.431836 -119.837495 158 16ft 0kts
05-Oct-17 14:35 34.431836 -119.837495 158 16ft 0kts
05-Oct-17 14:36 34.431836 -119.837495 158 16ft 0kts
05-Oct-17 14:37 34.431836 -119.837495 158 16ft 0kts
05-Oct-17 14:38 34.431836 -119.837495 158 16ft 0kts
05-Oct-17 14:39 34.431836 -119.837495 158 16ft 0kts
05-Oct-17 14:40 34.431836 -119.837495 158 16ft 0kts
05-Oct-17 14:41 34.431836 -119.837495 158 16ft 0kts
05-Oct-17 14:42 34.431836 -119.837495 158 16ft 0kts
05-Oct-17 14:43 34.431836 -119.837495 158 16ft 0kts

Navigation Log

Ident Type
Flight plan parsing failed, navigation log unavailable